CEB645 RPLL-RPVM
Flight info
| Callsign | CEB645 |
|---|---|
| Flight time | 0h 53m |
| Altitude | 29000 |
| Route | IPATA2V IPATA W25 BATAY BATAY3P |
| Aircraft | A320/M-SDE3FGHIRWY/LB1 |
Departure
| Time | 2026-05-07 05:53 |
|---|---|
| Airport | Ninoy Aquino International Airport (RPLL) |
Arrival
| Time | 2026-05-07 06:46 |
|---|---|
| Airport | Mactan Cebu International Airport (RPVM) |
| Time | Latitude | Longitude | Altitude | Speed | Heading |
|---|---|---|---|---|---|
| 2026-05-07 05:36 | 14.52396 | 121.00771 | 84 ft | 0 kts | 44° |
| 2026-05-07 05:45 | 14.52390 | 121.00764 | 84 ft | 2 kts | 44° |
| 2026-05-07 05:45 | 14.52379 | 121.00754 | 84 ft | 2 kts | 44° |
| 2026-05-07 05:45 | 14.52369 | 121.00743 | 84 ft | 2 kts | 44° |
| 2026-05-07 05:46 | 14.52358 | 121.00732 | 84 ft | 2 kts | 44° |
| 2026-05-07 05:46 | 14.52347 | 121.00722 | 84 ft | 2 kts | 44° |
| 2026-05-07 05:46 | 14.52337 | 121.00712 | 84 ft | 0 kts | 44° |
| 2026-05-07 05:46 | 14.52329 | 121.00704 | 84 ft | 2 kts | 17° |
| 2026-05-07 05:47 | 14.52314 | 121.00704 | 84 ft | 2 kts | 337° |
| 2026-05-07 05:47 | 14.52306 | 121.00709 | 84 ft | 1 kts | 314° |
| 2026-05-07 05:47 | 14.52302 | 121.00714 | 84 ft | 0 kts | 314° |
| 2026-05-07 05:49 | 14.52305 | 121.00711 | 83 ft | 2 kts | 314° |
| 2026-05-07 05:49 | 14.52336 | 121.00678 | 83 ft | 10 kts | 314° |
| 2026-05-07 05:49 | 14.52392 | 121.00623 | 83 ft | 11 kts | 318° |
| 2026-05-07 05:49 | 14.52449 | 121.00564 | 83 ft | 11 kts | 315° |
| 2026-05-07 05:50 | 14.52510 | 121.00503 | 83 ft | 12 kts | 315° |
| 2026-05-07 05:50 | 14.52544 | 121.00425 | 83 ft | 12 kts | 269° |
| 2026-05-07 05:50 | 14.52540 | 121.00336 | 83 ft | 12 kts | 267° |
| 2026-05-07 05:50 | 14.52529 | 121.00256 | 83 ft | 9 kts | 223° |
| 2026-05-07 05:51 | 14.52472 | 121.00282 | 84 ft | 10 kts | 134° |
| 2026-05-07 05:51 | 14.52424 | 121.00340 | 83 ft | 11 kts | 131° |
| 2026-05-07 05:51 | 14.52370 | 121.00401 | 83 ft | 11 kts | 135° |
| 2026-05-07 05:51 | 14.52310 | 121.00461 | 83 ft | 12 kts | 137° |
| 2026-05-07 05:52 | 14.52267 | 121.00504 | 83 ft | 0 kts | 137° |
| 2026-05-07 05:52 | 14.52266 | 121.00504 | 83 ft | 0 kts | 137° |
| 2026-05-07 05:52 | 14.52172 | 121.00603 | 84 ft | 54 kts | 134° |
| 2026-05-07 05:52 | 14.51732 | 121.01057 | 84 ft | 122 kts | 135° |
| 2026-05-07 05:53 | 14.51015 | 121.01793 | 269 ft | 156 kts | 135° |
| 2026-05-07 05:53 | 14.50269 | 121.02565 | 883 ft | 154 kts | 135° |
| 2026-05-07 05:53 | 14.49491 | 121.03360 | 1411 ft | 163 kts | 135° |
| 2026-05-07 05:53 | 14.48668 | 121.04199 | 1978 ft | 170 kts | 135° |
| 2026-05-07 05:54 | 14.47803 | 121.05090 | 2416 ft | 186 kts | 135° |
| 2026-05-07 05:54 | 14.46849 | 121.06076 | 2853 ft | 202 kts | 135° |
| 2026-05-07 05:54 | 14.45799 | 121.07159 | 3293 ft | 221 kts | 135° |
| 2026-05-07 05:54 | 14.44656 | 121.08336 | 3716 ft | 243 kts | 135° |
| 2026-05-07 05:55 | 14.43466 | 121.09647 | 4283 ft | 260 kts | 129° |
| 2026-05-07 05:55 | 14.42381 | 121.11182 | 5018 ft | 270 kts | 123° |
| 2026-05-07 05:55 | 14.41368 | 121.12810 | 5924 ft | 272 kts | 122° |
| 2026-05-07 05:55 | 14.40362 | 121.14451 | 6797 ft | 275 kts | 122° |
| 2026-05-07 05:56 | 14.39337 | 121.16118 | 7654 ft | 279 kts | 122° |
| 2026-05-07 05:56 | 14.38326 | 121.17757 | 8473 ft | 282 kts | 122° |
| 2026-05-07 05:56 | 14.37272 | 121.19458 | 9295 ft | 286 kts | 122° |
| 2026-05-07 05:56 | 14.36187 | 121.21206 | 10110 ft | 289 kts | 122° |
| 2026-05-07 05:57 | 14.35089 | 121.22973 | 10785 ft | 297 kts | 122° |
| 2026-05-07 05:57 | 14.33945 | 121.24813 | 11180 ft | 315 kts | 122° |
| 2026-05-07 05:57 | 14.32723 | 121.26778 | 11594 ft | 331 kts | 122° |
| 2026-05-07 05:57 | 14.31465 | 121.28799 | 12277 ft | 337 kts | 122° |
| 2026-05-07 05:58 | 14.30191 | 121.30844 | 13052 ft | 340 kts | 122° |
| 2026-05-07 05:58 | 14.28888 | 121.32935 | 13794 ft | 343 kts | 122° |
| 2026-05-07 05:58 | 14.27592 | 121.35014 | 14503 ft | 347 kts | 122° |
| 2026-05-07 05:58 | 14.26280 | 121.37120 | 15199 ft | 351 kts | 122° |
| 2026-05-07 05:59 | 14.24960 | 121.39238 | 15878 ft | 354 kts | 122° |
| 2026-05-07 05:59 | 14.23632 | 121.41369 | 16539 ft | 358 kts | 122° |
| 2026-05-07 05:59 | 14.22275 | 121.43549 | 17193 ft | 361 kts | 122° |
| 2026-05-07 05:59 | 14.20919 | 121.45725 | 17826 ft | 365 kts | 122° |
| 2026-05-07 06:00 | 14.19526 | 121.47959 | 18454 ft | 368 kts | 122° |
| 2026-05-07 06:00 | 14.18131 | 121.50193 | 19062 ft | 371 kts | 122° |
| 2026-05-07 06:00 | 14.16736 | 121.52425 | 19650 ft | 375 kts | 122° |
| 2026-05-07 06:00 | 14.15302 | 121.54720 | 20236 ft | 378 kts | 122° |
| 2026-05-07 06:01 | 14.13877 | 121.56998 | 20800 ft | 381 kts | 122° |
| 2026-05-07 06:01 | 14.12448 | 121.59283 | 21348 ft | 385 kts | 122° |
| 2026-05-07 06:01 | 14.10946 | 121.61621 | 21892 ft | 388 kts | 126° |
| 2026-05-07 06:01 | 14.09221 | 121.63765 | 22412 ft | 391 kts | 134° |
| 2026-05-07 06:02 | 14.07238 | 121.65650 | 22921 ft | 394 kts | 141° |
| 2026-05-07 06:02 | 14.05036 | 121.67390 | 23443 ft | 397 kts | 143° |
| 2026-05-07 06:02 | 14.02801 | 121.69083 | 23932 ft | 400 kts | 144° |
| 2026-05-07 06:02 | 14.00547 | 121.70783 | 24402 ft | 403 kts | 144° |
| 2026-05-07 06:03 | 13.98286 | 121.72492 | 24864 ft | 406 kts | 144° |
| 2026-05-07 06:03 | 13.95995 | 121.74228 | 25318 ft | 409 kts | 143° |
| 2026-05-07 06:03 | 13.93707 | 121.75964 | 25754 ft | 411 kts | 143° |
| 2026-05-07 06:03 | 13.91393 | 121.77722 | 26179 ft | 414 kts | 143° |
| 2026-05-07 06:04 | 13.89045 | 121.79507 | 26594 ft | 417 kts | 143° |
| 2026-05-07 06:04 | 13.86704 | 121.81278 | 26992 ft | 419 kts | 143° |
| 2026-05-07 06:04 | 13.84345 | 121.83062 | 27379 ft | 422 kts | 143° |
| 2026-05-07 06:04 | 13.81973 | 121.84854 | 27798 ft | 423 kts | 143° |
| 2026-05-07 06:05 | 13.79571 | 121.86668 | 28323 ft | 422 kts | 143° |
| 2026-05-07 06:05 | 13.77222 | 121.88442 | 28838 ft | 420 kts | 143° |
| 2026-05-07 06:05 | 13.74851 | 121.90231 | 29324 ft | 419 kts | 143° |
| 2026-05-07 06:05 | 13.72515 | 121.91993 | 29737 ft | 420 kts | 143° |
| 2026-05-07 06:06 | 13.70130 | 121.93792 | 30100 ft | 422 kts | 143° |
| 2026-05-07 06:06 | 13.67789 | 121.95557 | 30444 ft | 423 kts | 143° |
| 2026-05-07 06:06 | 13.65393 | 121.97364 | 30797 ft | 425 kts | 143° |
| 2026-05-07 06:06 | 13.63000 | 121.99167 | 30995 ft | 427 kts | 143° |
| 2026-05-07 06:07 | 13.60597 | 122.00978 | 31001 ft | 428 kts | 143° |
| 2026-05-07 06:07 | 13.55797 | 122.04593 | 31008 ft | 428 kts | 143° |
| 2026-05-07 06:08 | 13.50979 | 122.08221 | 31010 ft | 428 kts | 143° |
| 2026-05-07 06:08 | 13.46125 | 122.11872 | 31010 ft | 428 kts | 143° |
| 2026-05-07 06:09 | 13.41279 | 122.15517 | 31010 ft | 428 kts | 143° |
| 2026-05-07 06:09 | 13.36448 | 122.19147 | 31011 ft | 428 kts | 143° |
| 2026-05-07 06:10 | 13.31579 | 122.22805 | 31011 ft | 428 kts | 143° |
| 2026-05-07 06:10 | 13.26742 | 122.26437 | 31011 ft | 428 kts | 143° |
| 2026-05-07 06:11 | 13.21880 | 122.30086 | 31011 ft | 428 kts | 143° |
| 2026-05-07 06:11 | 13.16994 | 122.33751 | 31011 ft | 428 kts | 143° |
| 2026-05-07 06:12 | 13.12126 | 122.37400 | 31011 ft | 427 kts | 143° |
| 2026-05-07 06:12 | 13.07238 | 122.41063 | 31011 ft | 427 kts | 143° |
| 2026-05-07 06:13 | 13.02359 | 122.44717 | 31011 ft | 427 kts | 143° |
| 2026-05-07 06:13 | 12.97494 | 122.48359 | 31011 ft | 427 kts | 143° |
| 2026-05-07 06:14 | 12.92579 | 122.52036 | 31011 ft | 427 kts | 143° |
| 2026-05-07 06:14 | 12.87694 | 122.55683 | 31011 ft | 427 kts | 144° |
| 2026-05-07 06:15 | 12.82795 | 122.59323 | 31010 ft | 427 kts | 144° |
| 2026-05-07 06:15 | 12.77904 | 122.62969 | 31011 ft | 427 kts | 144° |
| 2026-05-07 06:16 | 12.72976 | 122.66654 | 31011 ft | 427 kts | 144° |
| 2026-05-07 06:16 | 12.68095 | 122.70324 | 31011 ft | 427 kts | 144° |
| 2026-05-07 06:17 | 12.63218 | 122.73973 | 31011 ft | 427 kts | 144° |
| 2026-05-07 06:17 | 12.58325 | 122.77623 | 31011 ft | 427 kts | 144° |
| 2026-05-07 06:18 | 12.53436 | 122.81266 | 31011 ft | 427 kts | 144° |
| 2026-05-07 06:18 | 12.48560 | 122.84897 | 31011 ft | 428 kts | 144° |
| 2026-05-07 06:19 | 12.43651 | 122.88548 | 31011 ft | 428 kts | 144° |
| 2026-05-07 06:19 | 12.38760 | 122.92184 | 31010 ft | 428 kts | 144° |
| 2026-05-07 06:20 | 12.33898 | 122.95797 | 31010 ft | 428 kts | 144° |
| 2026-05-07 06:20 | 12.29026 | 122.99426 | 31010 ft | 428 kts | 144° |
| 2026-05-07 06:21 | 12.24198 | 123.03023 | 31010 ft | 428 kts | 144° |
| 2026-05-07 06:21 | 12.20070 | 123.06092 | 31010 ft | 428 kts | 144° |
| 2026-05-07 06:22 | 12.15317 | 123.09622 | 31012 ft | 423 kts | 144° |
| 2026-05-07 06:22 | 12.10445 | 123.13238 | 31015 ft | 443 kts | 144° |
| 2026-05-07 06:22 | 12.07931 | 123.15104 | 31014 ft | 452 kts | 144° |
| 2026-05-07 06:23 | 12.02727 | 123.18964 | 31014 ft | 468 kts | 144° |
| 2026-05-07 06:23 | 11.97358 | 123.22942 | 30674 ft | 487 kts | 144° |
| 2026-05-07 06:24 | 11.94650 | 123.24948 | 30927 ft | 483 kts | 144° |
| 2026-05-07 06:24 | 11.91933 | 123.26961 | 30743 ft | 480 kts | 144° |
| 2026-05-07 06:24 | 11.89233 | 123.28959 | 30228 ft | 479 kts | 144° |
| 2026-05-07 06:24 | 11.86575 | 123.30917 | 29774 ft | 459 kts | 144° |
| 2026-05-07 06:25 | 11.83979 | 123.32826 | 29181 ft | 455 kts | 144° |
| 2026-05-07 06:25 | 11.81416 | 123.34714 | 28526 ft | 452 kts | 144° |
| 2026-05-07 06:25 | 11.78876 | 123.36587 | 27873 ft | 450 kts | 144° |
| 2026-05-07 06:25 | 11.76317 | 123.38477 | 27211 ft | 448 kts | 144° |
| 2026-05-07 06:26 | 11.73771 | 123.40358 | 26550 ft | 445 kts | 144° |
| 2026-05-07 06:26 | 11.71277 | 123.42200 | 25898 ft | 443 kts | 144° |
| 2026-05-07 06:26 | 11.68803 | 123.44029 | 25249 ft | 441 kts | 144° |
| 2026-05-07 06:26 | 11.66299 | 123.45879 | 24588 ft | 439 kts | 144° |
| 2026-05-07 06:27 | 11.63841 | 123.47694 | 23937 ft | 437 kts | 144° |
| 2026-05-07 06:27 | 11.61381 | 123.49512 | 23282 ft | 435 kts | 144° |
| 2026-05-07 06:27 | 11.58959 | 123.51300 | 22635 ft | 433 kts | 144° |
| 2026-05-07 06:27 | 11.56510 | 123.53108 | 21977 ft | 431 kts | 144° |
| 2026-05-07 06:28 | 11.54113 | 123.54878 | 21330 ft | 429 kts | 144° |
| 2026-05-07 06:28 | 11.51689 | 123.56667 | 20672 ft | 426 kts | 144° |
| 2026-05-07 06:28 | 11.49299 | 123.58431 | 20020 ft | 424 kts | 144° |
| 2026-05-07 06:28 | 11.46921 | 123.60184 | 19368 ft | 422 kts | 144° |
| 2026-05-07 06:29 | 11.44575 | 123.61916 | 18720 ft | 419 kts | 144° |
| 2026-05-07 06:29 | 11.42205 | 123.63663 | 18062 ft | 416 kts | 144° |
| 2026-05-07 06:29 | 11.39870 | 123.65385 | 17410 ft | 414 kts | 144° |
| 2026-05-07 06:29 | 11.37507 | 123.67139 | 16744 ft | 411 kts | 144° |
| 2026-05-07 06:30 | 11.35211 | 123.68843 | 16093 ft | 408 kts | 144° |
| 2026-05-07 06:30 | 11.32944 | 123.70521 | 15446 ft | 406 kts | 144° |
| 2026-05-07 06:30 | 11.30672 | 123.72199 | 14794 ft | 403 kts | 144° |
| 2026-05-07 06:30 | 11.28396 | 123.73876 | 14137 ft | 400 kts | 144° |
| 2026-05-07 06:31 | 11.26142 | 123.75535 | 13483 ft | 398 kts | 144° |
| 2026-05-07 06:31 | 11.23923 | 123.77166 | 12834 ft | 395 kts | 144° |
| 2026-05-07 06:31 | 11.21695 | 123.78804 | 12179 ft | 393 kts | 144° |
| 2026-05-07 06:31 | 11.19509 | 123.80411 | 11532 ft | 390 kts | 144° |
| 2026-05-07 06:32 | 11.17320 | 123.82021 | 10880 ft | 388 kts | 144° |
| 2026-05-07 06:32 | 11.15023 | 123.83404 | 10277 ft | 383 kts | 159° |
| 2026-05-07 06:32 | 11.12452 | 123.83903 | 10025 ft | 369 kts | 180° |
| 2026-05-07 06:32 | 11.10022 | 123.83546 | 10020 ft | 349 kts | 194° |
| 2026-05-07 06:33 | 11.07732 | 123.82912 | 10008 ft | 331 kts | 196° |
| 2026-05-07 06:33 | 11.05540 | 123.82268 | 10002 ft | 314 kts | 196° |
| 2026-05-07 06:33 | 11.03513 | 123.81676 | 9998 ft | 298 kts | 196° |
| 2026-05-07 06:33 | 11.01550 | 123.81111 | 10002 ft | 288 kts | 195° |
| 2026-05-07 06:34 | 10.99609 | 123.80559 | 10004 ft | 289 kts | 195° |
| 2026-05-07 06:34 | 10.97687 | 123.80018 | 10005 ft | 289 kts | 195° |
| 2026-05-07 06:34 | 10.95865 | 123.79507 | 9848 ft | 288 kts | 195° |
| 2026-05-07 06:34 | 10.89544 | 123.77738 | 9204 ft | 287 kts | 195° |
| 2026-05-07 06:35 | 10.61734 | 123.70001 | 6460 ft | 282 kts | 195° |
| 2026-05-07 06:35 | 10.54083 | 123.67869 | 5684 ft | 274 kts | 195° |
| 2026-05-07 06:35 | 10.52223 | 123.67348 | 5479 ft | 269 kts | 195° |
| 2026-05-07 06:35 | 10.50417 | 123.66844 | 5279 ft | 269 kts | 195° |
| 2026-05-07 06:36 | 10.48626 | 123.66345 | 5080 ft | 268 kts | 195° |
| 2026-05-07 06:36 | 10.46827 | 123.65843 | 4879 ft | 268 kts | 195° |
| 2026-05-07 06:36 | 10.45045 | 123.65346 | 4680 ft | 267 kts | 195° |
| 2026-05-07 06:36 | 10.43239 | 123.64844 | 4478 ft | 266 kts | 195° |
| 2026-05-07 06:37 | 10.41476 | 123.64353 | 4280 ft | 265 kts | 195° |
| 2026-05-07 06:37 | 10.39685 | 123.63855 | 4081 ft | 265 kts | 195° |
| 2026-05-07 06:37 | 10.37919 | 123.63364 | 4017 ft | 264 kts | 195° |
| 2026-05-07 06:37 | 10.36136 | 123.62918 | 4001 ft | 264 kts | 186° |
| 2026-05-07 06:38 | 10.34339 | 123.63104 | 3993 ft | 264 kts | 159° |
| 2026-05-07 06:38 | 10.32788 | 123.64094 | 3945 ft | 266 kts | 137° |
| 2026-05-07 06:38 | 10.31491 | 123.65402 | 4012 ft | 264 kts | 134° |
| 2026-05-07 06:38 | 10.30218 | 123.66760 | 3897 ft | 264 kts | 134° |
| 2026-05-07 06:39 | 10.28959 | 123.68088 | 3749 ft | 263 kts | 134° |
| 2026-05-07 06:39 | 10.27680 | 123.69414 | 3599 ft | 263 kts | 134° |
| 2026-05-07 06:39 | 10.26395 | 123.70731 | 3449 ft | 262 kts | 135° |
| 2026-05-07 06:39 | 10.25110 | 123.72042 | 3299 ft | 262 kts | 135° |
| 2026-05-07 06:40 | 10.23824 | 123.73350 | 3149 ft | 261 kts | 135° |
| 2026-05-07 06:40 | 10.22534 | 123.74661 | 3018 ft | 260 kts | 135° |
| 2026-05-07 06:40 | 10.21262 | 123.75953 | 3011 ft | 261 kts | 135° |
| 2026-05-07 06:40 | 10.19993 | 123.77243 | 2985 ft | 261 kts | 135° |
| 2026-05-07 06:41 | 10.18713 | 123.78543 | 2781 ft | 261 kts | 135° |
| 2026-05-07 06:41 | 10.17428 | 123.79849 | 2530 ft | 259 kts | 134° |
| 2026-05-07 06:41 | 10.16457 | 123.81337 | 2395 ft | 251 kts | 105° |
| 2026-05-07 06:41 | 10.16427 | 123.83024 | 2392 ft | 235 kts | 73° |
| 2026-05-07 06:42 | 10.17199 | 123.84422 | 2396 ft | 222 kts | 47° |
| 2026-05-07 06:42 | 10.18281 | 123.85520 | 2404 ft | 222 kts | 43° |
| 2026-05-07 06:42 | 10.19408 | 123.86597 | 2404 ft | 222 kts | 43° |
| 2026-05-07 06:42 | 10.20524 | 123.87676 | 2221 ft | 222 kts | 44° |
| 2026-05-07 06:43 | 10.21633 | 123.88766 | 2025 ft | 221 kts | 44° |
| 2026-05-07 06:43 | 10.22727 | 123.89854 | 1824 ft | 216 kts | 44° |
| 2026-05-07 06:43 | 10.23777 | 123.90905 | 1620 ft | 203 kts | 44° |
| 2026-05-07 06:43 | 10.24725 | 123.91856 | 1452 ft | 187 kts | 45° |
| 2026-05-07 06:44 | 10.25598 | 123.92735 | 1349 ft | 163 kts | 45° |
| 2026-05-07 06:44 | 10.26372 | 123.93525 | 1072 ft | 153 kts | 45° |
| 2026-05-07 06:44 | 10.27097 | 123.94272 | 786 ft | 143 kts | 45° |
| 2026-05-07 06:44 | 10.27786 | 123.94965 | 590 ft | 139 kts | 44° |
| 2026-05-07 06:45 | 10.28482 | 123.95662 | 450 ft | 139 kts | 45° |
| 2026-05-07 06:45 | 10.29175 | 123.96357 | 252 ft | 139 kts | 44° |
| 2026-05-07 06:45 | 10.29861 | 123.97045 | 67 ft | 138 kts | 44° |
| 2026-05-07 06:45 | 10.30486 | 123.97666 | 44 ft | 105 kts | 45° |
| 2026-05-07 06:46 | 10.30883 | 123.98070 | 44 ft | 56 kts | 45° |
| 2026-05-07 06:46 | 10.31119 | 123.98287 | 44 ft | 42 kts | 28° |